Time;durP1;ratioP1;P1;durP2;ratioP2;P2;SDS_P1;SDS_P2;PMS_P1;PMS_P2;Temp;Humidity;BMP_temperature;BMP_pressure;BME280_temperature;BME280_humidity;BME280_pressure;Samples;Min_cycle;Max_cycle;Signal;HPM_P1;HPM_P2
2021/01/28 00:00:00;;;;;;;42.77;22.47;;;;;;;2.99;100.00;100126.44;634602;225;24867;-74
2021/01/28 00:02:28;;;;;;;40.40;21.50;;;;;;;3.03;100.00;100127.05;632091;225;28037;-74
2021/01/28 00:04:56;;;;;;;39.50;21.13;;;;;;;3.25;100.00;100138.41;624724;229;24818;-74
2021/01/28 00:07:23;;;;;;;44.57;21.00;;;;;;;2.93;100.00;100137.91;626899;225;24793;-74
2021/01/28 00:09:51;;;;;;;38.63;20.37;;;;;;;3.04;100.00;100132.09;639610;223;24814;-73
2021/01/28 00:12:19;;;;;;;45.23;24.37;;;;;;;2.78;100.00;100140.63;640612;224;24786;-73
2021/01/28 00:14:47;;;;;;;44.33;21.70;;;;;;;2.88;100.00;100127.58;624584;229;24825;-73
2021/01/28 00:17:15;;;;;;;43.53;21.33;;;;;;;2.93;100.00;100121.20;626750;225;24844;-74
2021/01/28 00:19:43;;;;;;;40.57;21.10;;;;;;;2.87;100.00;100122.08;627637;227;24847;-74
2021/01/28 00:22:11;;;;;;;48.10;23.00;;;;;;;3.05;100.00;100123.91;627213;229;24818;-74
2021/01/28 00:24:39;;;;;;;39.90;20.87;;;;;;;2.97;100.00;100122.68;636568;225;24890;-73
2021/01/28 00:27:07;;;;;;;50.98;27.17;;;;;;;3.25;100.00;100115.75;620522;225;32777;-74
2021/01/28 00:29:35;;;;;;;52.13;25.60;;;;;;;2.93;100.00;100111.40;627850;228;23718;-74
2021/01/28 00:32:03;;;;;;;44.90;22.47;;;;;;;2.87;100.00;100097.22;625670;229;24849;-73
2021/01/28 00:34:31;;;;;;;47.43;23.37;;;;;;;2.83;100.00;100088.08;624963;229;24829;-74
2021/01/28 00:36:59;;;;;;;38.87;19.93;;;;;;;2.92;100.00;100086.17;629454;225;24847;-74
2021/01/28 00:39:27;;;;;;;41.60;21.70;;;;;;;2.91;100.00;100077.29;628628;227;24833;-73
2021/01/28 00:41:55;;;;;;;45.40;22.70;;;;;;;2.91;100.00;100076.83;626108;229;24804;-74
2021/01/28 00:44:23;;;;;;;45.43;21.83;;;;;;;2.96;100.00;100077.83;642089;223;24816;-74
2021/01/28 00:46:50;;;;;;;49.20;24.50;;;;;;;2.69;100.00;100076.59;641395;220;24856;-73
2021/01/28 00:49:18;;;;;;;47.57;22.20;;;;;;;2.67;100.00;100075.41;627788;228;27019;-73
2021/01/28 00:51:46;;;;;;;57.00;24.40;;;;;;;2.73;100.00;100065.19;637594;222;24859;-74
2021/01/28 00:54:14;;;;;;;51.07;23.60;;;;;;;2.74;100.00;100060.41;640586;224;24845;-73
2021/01/28 00:56:42;;;;;;;52.63;23.43;;;;;;;2.76;100.00;100065.45;640598;220;24811;-73
2021/01/28 00:59:10;;;;;;;54.30;23.97;;;;;;;3.06;100.00;100060.05;640868;224;24846;-74
2021/01/28 01:01:38;;;;;;;50.33;24.60;;;;;;;2.98;100.00;100060.11;640597;224;25840;-74
2021/01/28 01:04:06;;;;;;;47.43;22.20;;;;;;;2.97;100.00;100062.78;641175;222;24887;-74
2021/01/28 01:06:34;;;;;;;68.72;32.42;;;;;;;2.80;100.00;100071.56;625809;223;33226;-74
2021/01/28 01:09:02;;;;;;;58.80;27.07;;;;;;;2.73;100.00;100069.04;638691;224;23682;-74
2021/01/28 01:11:30;;;;;;;57.10;24.73;;;;;;;2.74;100.00;100062.98;625422;229;25115;-73
2021/01/28 01:13:58;;;;;;;53.93;24.90;;;;;;;2.77;100.00;100066.63;629888;227;25284;-73
2021/01/28 01:16:26;;;;;;;65.40;32.10;;;;;;;3.06;100.00;100062.62;620345;226;33302;-74
2021/01/28 01:18:54;;;;;;;63.17;29.63;;;;;;;2.72;100.00;100071.25;625833;229;23713;-73
2021/01/28 01:21:22;;;;;;;59.73;26.60;;;;;;;2.77;100.00;100063.23;628902;227;24845;-72
2021/01/28 01:23:51;;;;;;;54.57;25.30;;;;;;;2.74;100.00;100066.01;624601;229;25858;-73
2021/01/28 01:26:18;;;;;;;47.37;22.70;;;;;;;2.81;100.00;100063.39;632872;221;24882;-73
2021/01/28 01:28:46;;;;;;;56.90;24.23;;;;;;;2.69;100.00;100058.61;636884;225;25032;-74
2021/01/28 01:31:14;;;;;;;53.93;25.70;;;;;;;2.71;100.00;100050.34;637593;225;29202;-73
2021/01/28 01:33:42;;;;;;;46.77;22.13;;;;;;;2.88;100.00;100046.22;636940;225;25333;-73
2021/01/28 01:36:10;;;;;;;65.12;31.05;;;;;;;3.02;100.00;100039.35;626437;225;32964;-74
2021/01/28 01:38:38;;;;;;;59.50;27.33;;;;;;;2.93;100.00;100033.06;636976;225;23704;-73
2021/01/28 01:41:06;;;;;;;59.13;25.77;;;;;;;2.93;100.00;100026.64;637624;224;24784;-74
2021/01/28 01:43:34;;;;;;;52.77;24.60;;;;;;;2.74;100.00;100012.91;637621;224;24766;-74
2021/01/28 01:46:02;;;;;;;64.85;30.35;;;;;;;2.89;100.00;100007.23;636059;220;32669;-74
2021/01/28 01:48:30;;;;;;;55.97;28.03;;;;;;;2.78;100.00;100003.26;623723;230;23740;-74
2021/01/28 01:50:58;;;;;;;53.73;25.70;;;;;;;2.74;100.00;99999.25;639832;224;24801;-73
2021/01/28 01:53:27;;;;;;;57.17;24.17;;;;;;;2.83;100.00;100000.77;640091;224;24784;-73
2021/01/28 01:55:56;;;;;;;53.03;24.67;;;;;;;2.87;100.00;99996.24;628997;225;24827;-74
2021/01/28 01:58:29;;;;;;;57.60;24.80;;;;;;;2.69;100.00;99998.28;629266;225;24865;-74
2021/01/28 02:00:57;;;;;;;55.63;25.90;;;;;;;2.59;100.00;99996.77;634071;224;24814;-73
2021/01/28 02:03:25;;;;;;;53.07;23.43;;;;;;;2.63;100.00;99993.53;635572;223;24903;-74
2021/01/28 02:05:53;;;;;;;60.10;26.90;;;;;;;2.64;100.00;99988.75;632293;225;24839;-74
2021/01/28 02:08:21;;;;;;;57.70;26.27;;;;;;;2.68;100.00;99987.19;622163;229;24772;-74
2021/01/28 02:10:49;;;;;;;49.13;24.57;;;;;;;2.71;100.00;99981.48;626302;229;24818;-73
2021/01/28 02:13:17;;;;;;;53.77;26.70;;;;;;;2.80;100.00;99978.30;622389;228;24862;-74
2021/01/28 02:15:45;;;;;;;60.47;28.10;;;;;;;2.77;100.00;99971.63;625592;225;24806;-73
2021/01/28 02:18:13;;;;;;;55.40;25.23;;;;;;;2.73;100.00;99963.77;627420;229;24802;-74
2021/01/28 02:20:52;;;;;;;55.00;27.23;;;;;;;2.74;100.00;99957.71;641405;223;24796;-74
2021/01/28 02:23:24;;;;;;;53.40;24.07;;;;;;;2.76;100.00;99955.86;641485;223;26000;-76
2021/01/28 02:25:51;;;;;;;60.30;27.53;;;;;;;2.80;100.00;99950.88;637759;221;25197;-73
2021/01/28 02:28:19;;;;;;;62.73;31.48;;;;;;;2.90;100.00;99955.77;632401;224;32608;-74
2021/01/28 02:30:47;;;;;;;54.67;26.50;;;;;;;2.81;100.00;99947.37;641873;223;26874;-73
2021/01/28 02:33:15;;;;;;;55.03;25.33;;;;;;;2.81;100.00;99944.81;626258;226;25320;-73
2021/01/28 02:35:43;;;;;;;57.77;27.77;;;;;;;2.74;100.00;99943.59;628639;225;24843;-74
2021/01/28 02:38:11;;;;;;;55.63;25.00;;;;;;;2.75;100.00;99945.70;632054;225;24879;-73
2021/01/28 02:40:39;;;;;;;59.90;27.07;;;;;;;2.73;100.00;99939.37;624607;230;24882;-73
2021/01/28 02:43:07;;;;;;;49.63;23.20;;;;;;;2.82;100.00;99932.82;626045;229;24815;-73
2021/01/28 02:45:35;;;;;;;53.67;24.70;;;;;;;2.82;100.00;99930.25;626111;225;24812;-73
2021/01/28 02:48:03;;;;;;;62.10;28.33;;;;;;;2.81;100.00;99920.88;638397;223;24813;-73
2021/01/28 02:50:31;;;;;;;53.80;25.17;;;;;;;2.97;100.00;99914.63;640712;224;24804;-73
2021/01/28 02:52:59;;;;;;;54.17;24.60;;;;;;;2.96;100.00;99910.42;613988;229;24823;-74
2021/01/28 02:55:27;;;;;;;46.40;22.73;;;;;;;2.98;100.00;99903.42;627986;225;24867;-74
2021/01/28 02:57:55;;;;;;;55.03;25.50;;;;;;;2.90;100.00;99900.55;627920;226;24897;-74
2021/01/28 03:00:23;;;;;;;61.20;31.33;;;;;;;3.01;100.00;99901.11;621950;226;32878;-74
2021/01/28 03:02:51;;;;;;;51.03;25.30;;;;;;;3.02;100.00;99906.60;622202;229;23729;-73
2021/01/28 03:05:19;;;;;;;49.27;22.30;;;;;;;3.00;100.00;99903.32;638407;222;24784;-73
2021/01/28 03:07:47;;;;;;;44.57;22.57;;;;;;;3.09;100.00;99899.28;627801;225;24896;-74
2021/01/28 03:10:16;;;;;;;48.43;22.30;;;;;;;3.10;100.00;99897.09;626134;226;24848;-73
2021/01/28 03:12:44;;;;;;;44.63;22.63;;;;;;;3.10;100.00;99899.66;635113;226;24837;-73
2021/01/28 03:15:13;;;;;;;48.33;22.67;;;;;;;3.15;100.00;99897.59;628065;224;24848;-73
2021/01/28 03:17:41;;;;;;;49.83;22.70;;;;;;;3.21;100.00;99885.59;624107;229;24822;-74
2021/01/28 03:20:10;;;;;;;44.03;21.70;;;;;;;3.23;100.00;99877.31;625686;229;24815;-73
2021/01/28 03:22:38;;;;;;;41.77;21.60;;;;;;;3.33;100.00;99875.75;638799;223;24801;-74
2021/01/28 03:25:08;;;;;;;44.10;22.20;;;;;;;3.28;100.00;99863.70;639065;224;24825;-73
2021/01/28 03:27:36;;;;;;;44.53;22.60;;;;;;;3.30;100.00;99854.59;639526;221;24794;-74
2021/01/28 03:30:06;;;;;;;41.67;20.80;;;;;;;3.32;100.00;99844.55;626165;229;24823;-73
2021/01/28 03:32:34;;;;;;;44.60;21.70;;;;;;;3.33;100.00;99847.95;639950;224;24767;-74
2021/01/28 03:35:02;;;;;;;39.40;21.03;;;;;;;3.25;100.00;99831.80;640274;223;24827;-74
2021/01/28 03:37:30;;;;;;;42.50;20.87;;;;;;;3.23;100.00;99831.06;641730;220;25120;-73
2021/01/28 03:39:57;;;;;;;52.67;27.73;;;;;;;3.35;100.00;99831.48;635023;223;32773;-74
2021/01/28 03:42:25;;;;;;;48.10;23.47;;;;;;;3.28;100.00;99823.86;625861;229;23678;-73
2021/01/28 03:44:53;;;;;;;41.80;21.30;;;;;;;3.35;100.00;99822.48;625211;229;24812;-74
2021/01/28 03:47:21;;;;;;;48.45;26.20;;;;;;;3.65;100.00;99810.47;620632;225;33044;-74
2021/01/28 03:49:49;;;;;;;39.33;21.27;;;;;;;3.67;100.00;99809.09;628748;227;23707;-74
2021/01/28 03:52:17;;;;;;;38.13;20.53;;;;;;;3.64;100.00;99807.55;635020;225;24814;-74
2021/01/28 03:54:45;;;;;;;37.83;19.27;;;;;;;3.55;100.00;99798.77;625000;229;24830;-74
2021/01/28 03:57:13;;;;;;;39.80;21.43;;;;;;;3.50;100.00;99796.16;624663;226;28050;-73
2021/01/28 03:59:41;;;;;;;38.77;19.30;;;;;;;3.62;100.00;99790.13;626609;227;24831;-73
2021/01/28 04:02:09;;;;;;;34.80;18.40;;;;;;;3.67;100.00;99784.67;641269;224;24793;-74
2021/01/28 04:04:37;;;;;;;37.23;19.20;;;;;;;3.82;100.00;99775.36;628915;225;28048;-74
2021/01/28 04:07:04;;;;;;;30.30;17.73;;;;;;;3.92;100.00;99765.19;629790;225;25032;-74
2021/01/28 04:09:32;;;;;;;34.90;17.63;;;;;;;3.94;100.00;99756.92;625348;226;24905;-74
2021/01/28 04:12:00;;;;;;;38.50;20.10;;;;;;;3.96;100.00;99751.19;625658;225;24901;-74
2021/01/28 04:14:28;;;;;;;30.73;17.53;;;;;;;3.94;100.00;99744.06;626209;225;24843;-74
2021/01/28 04:16:56;;;;;;;31.67;16.90;;;;;;;4.06;100.00;99737.97;634062;225;24839;-74
2021/01/28 04:19:24;;;;;;;35.73;20.10;;;;;;;3.94;100.00;99731.20;629938;226;24866;-73
2021/01/28 04:21:52;;;;;;;36.87;19.77;;;;;;;3.80;100.00;99737.38;634488;225;24857;-74
2021/01/28 04:24:20;;;;;;;38.60;18.83;;;;;;;3.73;100.00;99745.17;630968;225;24849;-73
2021/01/28 04:26:47;;;;;;;39.40;19.63;;;;;;;3.70;100.00;99726.12;638613;220;24832;-73
2021/01/28 04:29:15;;;;;;;35.13;18.67;;;;;;;3.75;100.00;99725.77;642486;223;24791;-74
2021/01/28 04:31:43;;;;;;;34.23;18.13;;;;;;;3.84;100.00;99721.23;641003;223;24790;-74
2021/01/28 04:34:11;;;;;;;37.70;18.70;;;;;;;3.86;100.00;99718.08;639737;223;24794;-74
2021/01/28 04:36:39;;;;;;;44.77;21.30;;;;;;;3.70;100.00;99711.16;634237;224;24812;-73
2021/01/28 04:39:07;;;;;;;39.87;19.77;;;;;;;3.83;100.00;99702.41;642712;223;24822;-73
2021/01/28 04:41:35;;;;;;;41.10;20.17;;;;;;;3.86;100.00;99689.31;626279;229;24776;-74
2021/01/28 04:44:03;;;;;;;38.87;20.47;;;;;;;3.88;100.00;99678.44;627419;228;24865;-74
2021/01/28 04:46:31;;;;;;;40.40;20.07;;;;;;;4.09;100.00;99672.15;640263;221;24944;-74
2021/01/28 04:48:59;;;;;;;36.73;19.10;;;;;;;4.02;100.00;99654.71;638644;224;26899;-73
2021/01/28 04:51:28;;;;;;;35.93;18.90;;;;;;;4.08;100.00;99649.93;639604;224;24853;-74
2021/01/28 04:53:56;;;;;;;35.17;19.00;;;;;;;3.95;100.00;99654.84;640466;224;24809;-74
2021/01/28 04:56:24;;;;;;;34.67;20.23;;;;;;;4.08;100.00;99648.64;638432;221;24884;-73
2021/01/28 04:58:52;;;;;;;30.63;18.73;;;;;;;3.92;100.00;99644.30;639921;224;24849;-73
2021/01/28 05:01:20;;;;;;;35.70;18.20;;;;;;;4.15;100.00;99642.08;639296;224;25921;-73
2021/01/28 05:03:48;;;;;;;35.23;19.63;;;;;;;3.94;100.00;99636.02;626526;229;25016;-73
2021/01/28 05:06:16;;;;;;;29.40;17.83;;;;;;;3.96;100.00;99632.86;625042;226;24816;-73
2021/01/28 05:08:44;;;;;;;33.40;19.23;;;;;;;4.15;100.00;99620.20;627948;227;24860;-73
2021/01/28 05:11:20;;;;;;;34.27;19.90;;;;;;;4.18;100.00;99612.23;625963;228;24924;-73
2021/01/28 05:13:47;;;;;;;33.53;19.27;;;;;;;4.09;100.00;99609.58;639814;224;24891;-73
2021/01/28 05:16:21;;;;;;;33.00;19.07;;;;;;;3.97;100.00;99598.48;633799;221;24780;-73
2021/01/28 05:18:57;;;;;;;31.67;18.80;;;;;;;4.17;100.00;99590.02;626976;228;24865;-73
2021/01/28 05:21:25;;;;;;;31.77;17.90;;;;;;;4.21;100.00;99582.05;626758;228;25065;-73
2021/01/28 05:24:00;;;;;;;28.60;17.80;;;;;;;4.10;100.00;99578.58;626471;228;25126;-73
2021/01/28 05:26:29;;;;;;;37.58;23.55;;;;;;;4.52;100.00;99572.75;622672;225;32913;-73
2021/01/28 05:28:57;;;;;;;31.43;19.37;;;;;;;4.26;100.00;99569.66;628140;227;23709;-73
2021/01/28 05:31:27;;;;;;;34.00;18.93;;;;;;;4.22;100.00;99561.81;627790;228;24854;-72
2021/01/28 05:34:04;;;;;;;31.70;18.63;;;;;;;4.52;100.00;99564.55;626927;227;26981;-73
2021/01/28 05:36:32;;;;;;;32.67;17.03;;;;;;;4.47;100.00;99555.07;622570;228;24885;-73
2021/01/28 05:39:00;;;;;;;29.40;17.80;;;;;;;4.33;100.00;99545.88;626818;228;24806;-72
2021/01/28 05:41:30;;;;;;;32.60;17.90;;;;;;;4.32;100.00;99544.23;627133;228;24842;-72
2021/01/28 05:43:58;;;;;;;29.80;17.70;;;;;;;4.49;100.00;99537.73;643225;223;26038;-72
2021/01/28 05:46:26;;;;;;;35.40;22.75;;;;;;;4.90;100.00;99538.72;624155;223;32978;-73
2021/01/28 05:49:01;;;;;;;35.80;23.75;;;;;;;5.03;100.00;99519.55;626833;224;32951;-73
2021/01/28 05:51:35;;;;;;;29.50;19.07;;;;;;;4.50;100.00;99511.05;633760;224;23706;-73
2021/01/28 05:54:03;;;;;;;27.57;17.60;;;;;;;4.58;100.00;99511.73;622732;229;24898;-72
2021/01/28 05:56:32;;;;;;;27.43;17.63;;;;;;;4.48;100.00;99514.22;622301;225;24876;-73
2021/01/28 05:59:02;;;;;;;25.83;16.57;;;;;;;4.41;100.00;99493.79;639992;223;24807;-73
2021/01/28 06:01:35;;;;;;;25.27;15.80;;;;;;;4.57;100.00;99500.62;639488;224;24816;-73
2021/01/28 06:04:09;;;;;;;26.63;16.73;;;;;;;4.48;100.00;99499.59;639632;224;28051;-72
2021/01/28 06:06:59;;;;;;;24.33;16.00;;;;;;;4.30;100.00;99483.53;639812;220;24836;-72
2021/01/28 06:09:32;;;;;;;33.00;22.60;;;;;;;4.56;100.00;99477.09;630965;224;33381;-73
2021/01/28 06:12:30;;;;;;;29.40;18.80;;;;;;;4.57;100.00;99477.91;640027;224;23940;-73
2021/01/28 06:15:06;;;;;;;32.63;22.40;;;;;;;4.49;100.00;99468.22;632433;224;32736;-73
2021/01/28 06:17:39;;;;;;;28.70;18.03;;;;;;;4.56;100.00;99465.98;639512;221;23699;-73
2021/01/28 06:20:15;;;;;;;26.93;17.50;;;;;;;4.26;100.00;99467.53;641234;224;24845;-73
2021/01/28 06:22:46;;;;;;;34.33;21.33;;;;;;;4.40;100.00;99459.52;628506;224;32914;-72
2021/01/28 06:25:31;;;;;;;25.47;17.90;;;;;;;4.42;100.00;99455.52;640710;224;24792;-73
2021/01/28 06:28:19;;;;;;;27.93;16.70;;;;;;;4.59;100.00;99442.55;639649;224;24827;-73
2021/01/28 06:30:49;;;;;;;28.10;16.60;;;;;;;4.64;100.00;99446.37;639769;224;24829;-73
2021/01/28 06:33:39;;;;;;;34.60;21.20;;;;;;;4.84;100.00;99441.34;634381;224;43480;-73
2021/01/28 06:36:11;;;;;;;27.30;16.77;;;;;;;4.62;100.00;99427.66;639769;221;23684;-73
2021/01/28 06:39:02;;;;;;;25.30;16.37;;;;;;;4.35;100.00;99432.02;640199;224;24806;-72
2021/01/28 06:41:30;;;;;;;25.23;17.00;;;;;;;4.28;100.00;99427.52;622614;229;25889;-72
2021/01/28 06:44:00;;;;;;;27.97;17.70;;;;;;;4.32;100.00;99430.98;633899;225;24845;-71
2021/01/28 06:46:36;;;;;;;34.18;21.75;;;;;;;4.29;100.00;99432.53;627456;225;33130;-73
2021/01/28 06:49:09;;;;;;;35.17;23.35;;;;;;;4.39;100.00;99426.17;620544;227;32776;-72
2021/01/28 06:51:40;;;;;;;32.40;21.03;;;;;;;4.43;100.00;99430.13;629009;227;23732;-73
2021/01/28 06:54:08;;;;;;;29.20;16.37;;;;;;;4.43;100.00;99418.54;626818;227;28049;-72
2021/01/28 06:56:36;;;;;;;25.20;16.40;;;;;;;4.65;100.00;99413.27;628923;225;27049;-73
2021/01/28 06:59:07;;;;;;;26.97;16.70;;;;;;;4.48;100.00;99422.36;624817;229;25837;-72
2021/01/28 07:01:37;;;;;;;27.03;17.47;;;;;;;4.29;100.00;99418.84;625824;229;24801;-72
2021/01/28 07:04:07;;;;;;;25.10;15.33;;;;;;;4.44;100.00;99407.30;627262;229;24810;-72
2021/01/28 07:06:37;;;;;;;25.07;16.00;;;;;;;4.50;100.00;99405.97;621263;227;24881;-72
2021/01/28 07:09:15;;;;;;;27.47;16.03;;;;;;;4.53;100.00;99395.44;641647;223;26033;-72
2021/01/28 07:11:43;;;;;;;27.20;16.00;;;;;;;4.38;100.00;99396.23;639890;224;24817;-72
2021/01/28 07:14:13;;;;;;;31.52;20.40;;;;;;;4.50;100.00;99393.91;622676;225;32843;-71
2021/01/28 07:16:42;;;;;;;28.63;18.93;;;;;;;4.34;100.00;99387.92;629206;225;26923;-72
2021/01/28 07:19:13;;;;;;;29.00;16.40;;;;;;;4.40;100.00;99382.28;626327;229;24830;-73
2021/01/28 07:21:41;;;;;;;33.83;21.42;;;;;;;4.60;100.00;99375.95;621440;228;33076;-73
2021/01/28 07:24:10;;;;;;;32.35;21.57;;;;;;;4.81;100.00;99373.34;622399;227;33252;-73
2021/01/28 07:26:45;;;;;;;30.17;17.50;;;;;;;4.44;100.00;99371.26;627219;225;23685;-73
2021/01/28 07:29:24;;;;;;;29.33;18.20;;;;;;;4.30;100.00;99367.72;624796;229;24804;-72
2021/01/28 07:31:52;;;;;;;31.47;17.33;;;;;;;4.23;100.00;99358.88;625825;228;24810;-72
2021/01/28 07:34:20;;;;;;;35.90;22.22;;;;;;;4.34;100.00;99347.20;635342;223;32817;-72
2021/01/28 07:36:49;;;;;;;32.47;19.17;;;;;;;4.25;100.00;99344.13;639222;221;23676;-72
2021/01/28 07:39:36;;;;;;;41.07;23.83;;;;;;;4.20;100.00;99338.52;633286;224;24813;-73
2021/01/28 07:42:07;;;;;;;39.73;25.85;;;;;;;4.39;100.00;99326.59;632483;224;32810;-73
2021/01/28 07:44:50;;;;;;;51.48;34.03;;;;;;;4.69;100.00;99321.92;634007;224;32649;-73
2021/01/28 07:47:29;;;;;;;40.43;25.30;;;;;;;4.68;100.00;99308.70;640546;220;23673;-72
2021/01/28 07:50:08;;;;;;;24.07;16.07;;;;;;;4.67;100.00;99302.40;625198;229;24791;-73
2021/01/28 07:52:38;;;;;;;28.00;15.10;;;;;;;4.72;100.00;99298.95;640475;223;24836;-72
2021/01/28 07:55:06;;;;;;;21.00;13.57;;;;;;;4.85;100.00;99294.38;639096;223;24787;-72
2021/01/28 07:57:41;;;;;;;19.47;13.10;;;;;;;4.85;100.00;99283.27;638299;221;24780;-72
2021/01/28 08:00:10;;;;;;;20.97;12.13;;;;;;;4.94;100.00;99280.72;641226;222;28034;-73
2021/01/28 08:02:38;;;;;;;21.80;12.80;;;;;;;4.81;100.00;99280.62;640649;223;24813;-73
2021/01/28 08:05:09;;;;;;;18.17;12.60;;;;;;;4.96;100.00;99278.02;640228;224;24830;-72
2021/01/28 08:07:38;;;;;;;17.83;11.63;;;;;;;4.92;100.00;99267.13;626205;225;24825;-72
2021/01/28 08:10:06;;;;;;;18.73;11.67;;;;;;;4.95;100.00;99257.88;627605;228;27003;-73
2021/01/28 08:12:34;;;;;;;19.83;12.93;;;;;;;5.14;100.00;99249.34;641412;223;24840;-73
2021/01/28 08:15:02;;;;;;;19.67;12.33;;;;;;;5.09;100.00;99242.50;639816;224;24812;-73
2021/01/28 08:17:31;;;;;;;17.47;11.73;;;;;;;5.05;100.00;99232.10;625216;225;24816;-73
2021/01/28 08:20:11;;;;;;;15.83;11.27;;;;;;;5.17;100.00;99222.01;634290;225;24882;-73
2021/01/28 08:22:52;;;;;;;21.62;14.43;;;;;;;5.52;100.00;99211.62;627999;225;32942;-72
2021/01/28 08:25:19;;;;;;;18.23;11.83;;;;;;;5.39;100.00;99205.47;633228;225;23695;-73
2021/01/28 08:27:47;;;;;;;17.60;10.27;;;;;;;5.39;100.00;99209.81;638757;221;24862;-73
2021/01/28 08:30:16;;;;;;;18.87;13.40;;;;;;;5.60;100.00;99200.95;616118;229;33060;-72
2021/01/28 08:32:45;;;;;;;17.90;12.37;;;;;;;5.58;100.00;99195.12;626101;229;23680;-73
2021/01/28 08:35:13;;;;;;;18.33;11.17;;;;;;;5.66;100.00;99192.67;626374;229;24770;-73
2021/01/28 08:37:41;;;;;;;14.30;10.30;;;;;;;5.56;100.00;99173.00;639577;220;24845;-73
2021/01/28 08:40:13;;;;;;;14.07;8.97;;;;;;;5.57;100.00;99175.44;639779;224;25103;-73
2021/01/28 08:42:41;;;;;;;19.02;12.88;;;;;;;6.07;100.00;99171.33;628066;224;32797;-72
2021/01/28 08:45:11;;;;;;;18.07;13.23;;;;;;;6.15;100.00;99155.92;634518;224;32743;-73
2021/01/28 08:47:39;;;;;;;14.93;10.13;;;;;;;5.99;100.00;99157.50;639368;220;24805;-73
2021/01/28 08:50:08;;;;;;;14.40;9.90;;;;;;;5.64;100.00;99158.95;640138;224;24817;-73
2021/01/28 08:52:36;;;;;;;16.27;11.10;;;;;;;5.72;100.00;99151.30;640859;224;24807;-72
2021/01/28 08:55:09;;;;;;;13.40;9.30;;;;;;;5.67;100.00;99149.63;638098;224;24792;-72
2021/01/28 08:57:37;;;;;;;14.93;10.07;;;;;;;5.65;100.00;99144.62;638058;221;24823;-73
2021/01/28 09:00:08;;;;;;;15.77;10.10;;;;;;;5.46;100.00;99131.75;638273;224;24799;-73
2021/01/28 09:02:36;;;;;;;16.00;9.90;;;;;;;5.59;100.00;99132.27;625952;229;24796;-73
2021/01/28 09:05:04;;;;;;;13.33;8.60;;;;;;;5.70;100.00;99130.00;626133;229;25143;-72
2021/01/28 09:07:45;;;;;;;12.30;8.87;;;;;;;5.62;100.00;99132.45;639094;221;24920;-72
2021/01/28 09:10:14;;;;;;;12.70;8.40;;;;;;;5.64;100.00;99129.29;639486;224;24784;-72
2021/01/28 09:12:42;;;;;;;14.40;10.70;;;;;;;5.65;100.00;99143.81;621287;227;32957;-72
2021/01/28 09:15:11;;;;;;;13.03;9.57;;;;;;;5.62;100.00;99139.72;627082;228;23724;-72
2021/01/28 09:17:39;;;;;;;13.00;8.90;;;;;;;5.64;100.00;99135.73;640229;220;27991;-73
2021/01/28 09:20:09;;;;;;;13.30;8.80;;;;;;;5.65;100.00;99134.78;642133;224;24846;-72
2021/01/28 09:22:37;;;;;;;14.70;8.70;;;;;;;5.64;100.00;99137.03;641059;224;24860;-72
2021/01/28 09:25:05;;;;;;;11.33;7.87;;;;;;;5.69;100.00;99132.72;641168;224;24844;-72
2021/01/28 09:27:35;;;;;;;14.10;10.68;;;;;;;5.81;100.00;99125.97;633110;221;32813;-73
2021/01/28 09:30:11;;;;;;;13.87;9.40;;;;;;;5.77;100.00;99132.37;625692;229;23747;-72
2021/01/28 09:32:39;;;;;;;13.17;8.50;;;;;;;5.81;100.00;99138.05;624724;229;24811;-72
2021/01/28 09:35:12;;;;;;;11.07;7.70;;;;;;;5.83;100.00;99137.43;626970;227;24860;-73
2021/01/28 09:37:40;;;;;;;11.47;8.83;;;;;;;5.83;100.00;99134.38;643286;221;24808;-73
2021/01/28 09:40:20;;;;;;;9.80;7.77;;;;;;;5.82;100.00;99139.20;625111;228;24861;-73
2021/01/28 09:42:48;;;;;;;12.47;8.90;;;;;;;5.82;100.00;99134.52;640792;224;24774;-73
2021/01/28 09:45:21;;;;;;;12.13;8.80;;;;;;;5.81;100.00;99141.45;633953;225;24747;-73
2021/01/28 09:47:51;;;;;;;14.63;9.10;;;;;;;5.71;100.00;99137.27;636802;220;24760;-75
2021/01/28 09:50:19;;;;;;;11.73;8.50;;;;;;;5.75;100.00;99136.02;633457;225;24750;-73
2021/01/28 09:52:47;;;;;;;13.23;9.60;;;;;;;5.67;100.00;99140.61;637878;224;24760;-73
2021/01/28 09:55:15;;;;;;;12.23;8.80;;;;;;;5.69;100.00;99137.41;637201;225;24752;-73
2021/01/28 09:57:43;;;;;;;13.40;9.60;;;;;;;5.70;100.00;99133.06;638650;221;24763;-73
2021/01/28 10:00:12;;;;;;;14.37;9.77;;;;;;;5.68;100.00;99133.20;637882;223;24760;-73
2021/01/28 10:02:41;;;;;;;14.30;9.13;;;;;;;5.74;100.00;99139.08;636665;223;24778;-73
2021/01/28 10:05:10;;;;;;;14.53;10.53;;;;;;;5.73;100.00;99136.16;636931;224;24801;-73
2021/01/28 10:07:38;;;;;;;13.37;9.87;;;;;;;5.76;100.00;99136.35;636972;221;24777;-73
2021/01/28 10:10:07;;;;;;;13.97;10.20;;;;;;;5.82;100.00;99133.22;637254;224;25067;-73
2021/01/28 10:12:35;;;;;;;12.10;8.50;;;;;;;5.77;100.00;99129.79;638347;224;27997;-73
2021/01/28 10:15:04;;;;;;;14.50;10.00;;;;;;;5.85;100.00;99127.30;636374;224;25910;-73
2021/01/28 10:17:32;;;;;;;20.53;9.20;;;;;;;5.87;100.00;99127.16;637569;221;24764;-72
2021/01/28 10:20:00;;;;;;;11.87;9.23;;;;;;;5.86;100.00;99125.05;639589;223;24758;-73
2021/01/28 10:22:28;;;;;;;13.27;9.63;;;;;;;5.84;100.00;99117.94;639837;222;24882;-73
2021/01/28 10:24:56;;;;;;;15.40;10.80;;;;;;;5.86;100.00;99112.62;627280;228;24853;-73
2021/01/28 10:27:24;;;;;;;15.90;12.40;;;;;;;5.99;100.00;99114.44;621837;225;32883;-73
2021/01/28 10:29:52;;;;;;;22.37;14.87;;;;;;;5.95;100.00;99110.53;629036;227;23673;-72
2021/01/28 10:32:19;;;;;;;22.80;15.90;;;;;;;6.09;100.00;99101.50;626119;229;24822;-73
2021/01/28 10:34:47;;;;;;;13.60;10.80;;;;;;;6.09;100.00;99089.88;631812;224;24832;-73
2021/01/28 10:37:17;;;;;;;15.10;9.93;;;;;;;6.18;100.00;99082.06;631767;224;24828;-73
2021/01/28 10:39:43;;;;;;;11.37;8.70;;;;;;;6.21;100.00;99061.14;635741;224;24850;-73
2021/01/28 10:42:14;;;;;;;11.33;9.40;;;;;;;6.29;100.00;99052.65;627821;229;24820;-73
2021/01/28 10:44:42;;;;;;;15.27;11.80;;;;;;;6.64;100.00;99022.15;621423;229;33138;-73
2021/01/28 10:47:11;;;;;;;13.10;8.90;;;;;;;6.49;100.00;98982.31;626848;225;24825;-74
2021/01/28 10:49:39;;;;;;;10.90;7.70;;;;;;;6.50;100.00;98960.21;633629;225;24908;-73
2021/01/28 10:52:07;;;;;;;10.60;7.57;;;;;;;6.68;100.00;98964.53;635800;225;24811;-73
2021/01/28 10:54:35;;;;;;;8.80;6.00;;;;;;;6.77;100.00;98956.69;636854;225;24840;-73
2021/01/28 10:57:04;;;;;;;10.03;6.20;;;;;;;6.96;100.00;98963.89;634929;220;24837;-73
2021/01/28 10:59:32;;;;;;;7.10;5.60;;;;;;;7.12;100.00;98955.73;622562;229;26916;-73
2021/01/28 11:02:01;;;;;;;8.70;5.77;;;;;;;7.20;100.00;98969.69;626833;226;29071;-74
2021/01/28 11:04:30;;;;;;;9.70;6.43;;;;;;;7.33;100.00;98985.59;637813;224;24831;-73
2021/01/28 11:06:57;;;;;;;8.80;5.30;;;;;;;7.29;100.00;98994.59;639939;221;25900;-74
2021/01/28 11:09:25;;;;;;;6.93;5.40;;;;;;;7.44;100.00;98993.86;639925;223;24861;-74
2021/01/28 11:11:54;;;;;;;5.67;4.60;;;;;;;7.45;100.00;98983.03;638869;224;24809;-73
2021/01/28 11:14:21;;;;;;;8.77;5.30;;;;;;;7.58;100.00;98983.41;640526;223;24823;-74
2021/01/28 11:16:49;;;;;;;8.20;5.60;;;;;;;7.57;100.00;98986.96;625545;225;24795;-73
2021/01/28 11:19:17;;;;;;;8.90;5.27;;;;;;;7.78;100.00;98972.33;623578;228;24832;-73
2021/01/28 11:21:45;;;;;;;7.57;5.30;;;;;;;7.93;100.00;98967.34;643520;224;24794;-74
2021/01/28 11:24:13;;;;;;;8.93;5.17;;;;;;;7.92;100.00;98969.12;624506;229;24771;-74
2021/01/28 11:26:43;;;;;;;6.63;5.30;;;;;;;7.92;100.00;98970.91;638647;222;24806;-73